sensor_id;sensor_type;location;lat;lon;timestamp;pressure;altitude;pressure_sealevel;temperature;humidity
50394;BME280;36308;46.312;25.288;2022-11-15T00:00:52;96633.59;;;0.31;67.01
50394;BME280;36308;46.312;25.288;2022-11-15T00:03:20;96624.56;;;0.25;66.94
50394;BME280;36308;46.312;25.288;2022-11-15T00:05:45;96624.91;;;0.22;66.89
50394;BME280;36308;46.312;25.288;2022-11-15T00:08:11;96625.91;;;0.21;66.89
50394;BME280;36308;46.312;25.288;2022-11-15T00:10:37;96616.31;;;0.20;66.98
50394;BME280;36308;46.312;25.288;2022-11-15T00:13:06;96618.97;;;0.20;66.33
50394;BME280;36308;46.312;25.288;2022-11-15T00:15:40;96614.69;;;0.19;66.99
50394;BME280;36308;46.312;25.288;2022-11-15T00:18:11;96622.81;;;0.17;67.05
50394;BME280;36308;46.312;25.288;2022-11-15T00:20:37;96618.69;;;0.15;67.15
50394;BME280;36308;46.312;25.288;2022-11-15T00:23:04;96622.31;;;0.14;66.37
50394;BME280;36308;46.312;25.288;2022-11-15T00:25:29;96620.69;;;0.13;66.97
50394;BME280;36308;46.312;25.288;2022-11-15T00:27:56;96611.28;;;0.10;66.42
50394;BME280;36308;46.312;25.288;2022-11-15T00:30:22;96614.44;;;0.06;66.61
50394;BME280;36308;46.312;25.288;2022-11-15T00:32:47;96611.81;;;0.06;66.98
50394;BME280;36308;46.312;25.288;2022-11-15T00:35:13;96605.88;;;0.04;67.08
50394;BME280;36308;46.312;25.288;2022-11-15T00:37:38;96604.25;;;0.03;67.22
50394;BME280;36308;46.312;25.288;2022-11-15T00:40:04;96595.19;;;-0.03;66.83
50394;BME280;36308;46.312;25.288;2022-11-15T00:42:29;96600.31;;;-0.02;67.22
50394;BME280;36308;46.312;25.288;2022-11-15T00:44:55;96598.00;;;-0.05;67.17
50394;BME280;36308;46.312;25.288;2022-11-15T00:47:20;96597.19;;;-0.05;66.69
50394;BME280;36308;46.312;25.288;2022-11-15T00:49:45;96599.84;;;-0.05;67.32
50394;BME280;36308;46.312;25.288;2022-11-15T00:52:11;96600.00;;;-0.07;67.14
50394;BME280;36308;46.312;25.288;2022-11-15T00:54:36;96602.19;;;-0.10;67.06
50394;BME280;36308;46.312;25.288;2022-11-15T00:57:02;96590.13;;;-0.13;66.76
50394;BME280;36308;46.312;25.288;2022-11-15T00:59:27;96586.84;;;-0.15;66.89
50394;BME280;36308;46.312;25.288;2022-11-15T01:01:53;96592.13;;;-0.15;66.89
50394;BME280;36308;46.312;25.288;2022-11-15T01:04:18;96587.22;;;-0.18;67.17
50394;BME280;36308;46.312;25.288;2022-11-15T01:06:43;96590.03;;;-0.19;67.26
50394;BME280;36308;46.312;25.288;2022-11-15T01:09:09;96580.00;;;-0.24;67.35
50394;BME280;36308;46.312;25.288;2022-11-15T01:11:34;96582.28;;;-0.21;67.39
50394;BME280;36308;46.312;25.288;2022-11-15T01:14:00;96577.34;;;-0.24;67.02
50394;BME280;36308;46.312;25.288;2022-11-15T01:16:25;96582.63;;;-0.24;67.59
50394;BME280;36308;46.312;25.288;2022-11-15T01:18:51;96580.00;;;-0.24;67.30
50394;BME280;36308;46.312;25.288;2022-11-15T01:21:18;96585.44;;;-0.26;67.20
50394;BME280;36308;46.312;25.288;2022-11-15T01:23:44;96576.41;;;-0.31;67.10
50394;BME280;36308;46.312;25.288;2022-11-15T01:26:12;96572.78;;;-0.30;66.90
50394;BME280;36308;46.312;25.288;2022-11-15T01:28:39;96580.03;;;-0.32;66.69
50394;BME280;36308;46.312;25.288;2022-11-15T01:31:15;96575.09;;;-0.35;67.01
50394;BME280;36308;46.312;25.288;2022-11-15T01:33:41;96574.44;;;-0.37;67.12
50394;BME280;36308;46.312;25.288;2022-11-15T01:36:18;96578.91;;;-0.38;67.48
50394;BME280;36308;46.312;25.288;2022-11-15T01:38:44;96568.53;;;-0.39;67.25
50394;BME280;36308;46.312;25.288;2022-11-15T01:41:20;96565.22;;;-0.42;67.21
50394;BME280;36308;46.312;25.288;2022-11-15T01:43:48;96559.50;;;-0.45;67.20
50394;BME280;36308;46.312;25.288;2022-11-15T01:46:28;96561.31;;;-0.46;67.30
50394;BME280;36308;46.312;25.288;2022-11-15T01:48:57;96555.41;;;-0.48;67.10
50394;BME280;36308;46.312;25.288;2022-11-15T01:51:28;96564.31;;;-0.49;67.45
50394;BME280;36308;46.312;25.288;2022-11-15T01:54:00;96567.97;;;-0.50;67.32
50394;BME280;36308;46.312;25.288;2022-11-15T01:56:29;96556.91;;;-0.53;67.22
50394;BME280;36308;46.312;25.288;2022-11-15T01:58:56;96563.00;;;-0.53;67.45
50394;BME280;36308;46.312;25.288;2022-11-15T02:01:24;96562.34;;;-0.55;67.19
50394;BME280;36308;46.312;25.288;2022-11-15T02:04:25;96558.41;;;-0.59;67.28
50394;BME280;36308;46.312;25.288;2022-11-15T02:06:52;96560.09;;;-0.58;67.20
50394;BME280;36308;46.312;25.288;2022-11-15T02:09:18;96553.50;;;-0.62;67.05
50394;BME280;36308;46.312;25.288;2022-11-15T02:11:45;96546.72;;;-0.65;66.84
50394;BME280;36308;46.312;25.288;2022-11-15T02:14:13;96557.50;;;-0.66;67.09
50394;BME280;36308;46.312;25.288;2022-11-15T02:28:06;96549.94;;;-0.77;67.46
50394;BME280;36308;46.312;25.288;2022-11-15T02:30:47;96558.88;;;-0.78;67.64
50394;BME280;36308;46.312;25.288;2022-11-15T02:33:38;96546.00;;;-0.82;67.67
50394;BME280;36308;46.312;25.288;2022-11-15T02:36:15;96549.47;;;-0.81;67.64
50394;BME280;36308;46.312;25.288;2022-11-15T02:44:03;96552.63;;;-0.86;67.49
50394;BME280;36308;46.312;25.288;2022-11-15T02:46:45;96549.34;;;-0.88;67.12
50394;BME280;36308;46.312;25.288;2022-11-15T02:49:33;96540.78;;;-0.90;67.51
50394;BME280;36308;46.312;25.288;2022-11-15T02:52:00;96541.94;;;-0.92;67.30
50394;BME280;36308;46.312;25.288;2022-11-15T02:54:30;96539.47;;;-0.94;67.08
50394;BME280;36308;46.312;25.288;2022-11-15T02:57:00;96540.66;;;-0.96;67.44
50394;BME280;36308;46.312;25.288;2022-11-15T02:59:44;96536.53;;;-0.99;67.67
50394;BME280;36308;46.312;25.288;2022-11-15T03:07:40;96530.28;;;-1.06;67.47
50394;BME280;36308;46.312;25.288;2022-11-15T03:10:13;96535.75;;;-1.08;67.40
50394;BME280;36308;46.312;25.288;2022-11-15T03:12:48;96527.38;;;-1.11;67.31
50394;BME280;36308;46.312;25.288;2022-11-15T03:15:21;96526.72;;;-1.13;67.37
50394;BME280;36308;46.312;25.288;2022-11-15T03:17:59;96526.88;;;-1.15;67.42
50394;BME280;36308;46.312;25.288;2022-11-15T03:20:26;96520.78;;;-1.15;67.36
50394;BME280;36308;46.312;25.288;2022-11-15T03:22:53;96520.28;;;-1.19;67.54
50394;BME280;36308;46.312;25.288;2022-11-15T03:25:23;96523.09;;;-1.20;67.88
50394;BME280;36308;46.312;25.288;2022-11-15T03:27:52;96514.53;;;-1.23;67.76
50394;BME280;36308;46.312;25.288;2022-11-15T03:30:19;96504.34;;;-1.26;67.66
50394;BME280;36308;46.312;25.288;2022-11-15T03:32:53;96506.97;;;-1.26;67.35
50394;BME280;36308;46.312;25.288;2022-11-15T03:35:25;96503.03;;;-1.30;67.80
50394;BME280;36308;46.312;25.288;2022-11-15T03:38:12;96493.47;;;-1.31;67.67
50394;BME280;36308;46.312;25.288;2022-11-15T03:40:42;96507.66;;;-1.32;67.53
50394;BME280;36308;46.312;25.288;2022-11-15T03:43:15;96502.53;;;-1.33;67.82
50394;BME280;36308;46.312;25.288;2022-11-15T03:46:07;96505.38;;;-1.35;67.65
50394;BME280;36308;46.312;25.288;2022-11-15T03:49:00;96498.44;;;-1.36;68.14
50394;BME280;36308;46.312;25.288;2022-11-15T03:51:29;96491.88;;;-1.40;68.03
50394;BME280;36308;46.312;25.288;2022-11-15T03:53:55;96483.31;;;-1.42;67.84
50394;BME280;36308;46.312;25.288;2022-11-15T03:56:20;96492.22;;;-1.43;67.65
50394;BME280;36308;46.312;25.288;2022-11-15T03:58:46;96482.66;;;-1.44;68.03
50394;BME280;36308;46.312;25.288;2022-11-15T04:01:11;96482.00;;;-1.46;68.13
50394;BME280;36308;46.312;25.288;2022-11-15T04:03:36;96482.00;;;-1.46;68.17
50394;BME280;36308;46.312;25.288;2022-11-15T04:06:02;96476.44;;;-1.51;68.38
50394;BME280;36308;46.312;25.288;2022-11-15T04:08:27;96472.13;;;-1.52;68.15
50394;BME280;36308;46.312;25.288;2022-11-15T04:10:53;96468.84;;;-1.54;68.13
50394;BME280;36308;46.312;25.288;2022-11-15T04:13:18;96477.41;;;-1.52;68.30
50394;BME280;36308;46.312;25.288;2022-11-15T04:15:43;96478.41;;;-1.53;68.15
50394;BME280;36308;46.312;25.288;2022-11-15T04:18:09;96470.50;;;-1.53;68.59
50394;BME280;36308;46.312;25.288;2022-11-15T04:20:34;96463.56;;;-1.54;68.65
50394;BME280;36308;46.312;25.288;2022-11-15T04:23:20;96471.66;;;-1.56;68.33
50394;BME280;36308;46.312;25.288;2022-11-15T04:26:09;96471.84;;;-1.57;68.31
50394;BME280;36308;46.312;25.288;2022-11-15T04:28:36;96472.16;;;-1.60;68.39
50394;BME280;36308;46.312;25.288;2022-11-15T04:31:25;96465.25;;;-1.61;68.66
50394;BME280;36308;46.312;25.288;2022-11-15T04:33:50;96459.34;;;-1.64;68.51
50394;BME280;36308;46.312;25.288;2022-11-15T04:36:16;96464.59;;;-1.64;68.17
50394;BME280;36308;46.312;25.288;2022-11-15T04:38:59;96467.56;;;-1.67;67.86
50394;BME280;36308;46.312;25.288;2022-11-15T04:41:25;96465.94;;;-1.68;68.01
50394;BME280;36308;46.312;25.288;2022-11-15T04:43:50;96459.16;;;-1.70;68.28
50394;BME280;36308;46.312;25.288;2022-11-15T04:46:16;96462.00;;;-1.72;68.23
50394;BME280;36308;46.312;25.288;2022-11-15T04:48:42;96457.88;;;-1.74;68.18
50394;BME280;36308;46.312;25.288;2022-11-15T04:51:07;96456.22;;;-1.75;68.18
50394;BME280;36308;46.312;25.288;2022-11-15T04:53:33;96459.38;;;-1.80;68.39
50394;BME280;36308;46.312;25.288;2022-11-15T04:55:58;96465.47;;;-1.79;68.35
50394;BME280;36308;46.312;25.288;2022-11-15T04:58:23;96454.78;;;-1.86;68.16
50394;BME280;36308;46.312;25.288;2022-11-15T05:00:49;96459.06;;;-1.85;68.43
50394;BME280;36308;46.312;25.288;2022-11-15T05:03:14;96471.41;;;-1.86;68.22
50394;BME280;36308;46.312;25.288;2022-11-15T05:05:58;96461.38;;;-1.90;68.57
50394;BME280;36308;46.312;25.288;2022-11-15T05:08:24;96470.94;;;-1.89;68.66
50394;BME280;36308;46.312;25.288;2022-11-15T05:10:50;96466.81;;;-1.92;68.58
50394;BME280;36308;46.312;25.288;2022-11-15T05:13:15;96466.69;;;-1.98;68.76
50394;BME280;36308;46.312;25.288;2022-11-15T05:15:41;96472.28;;;-2.01;68.87
50394;BME280;36308;46.312;25.288;2022-11-15T05:18:06;96467.34;;;-2.05;68.92
50394;BME280;36308;46.312;25.288;2022-11-15T05:20:32;96471.31;;;-2.09;68.73
50394;BME280;36308;46.312;25.288;2022-11-15T05:22:58;96465.72;;;-2.14;68.83
50394;BME280;36308;46.312;25.288;2022-11-15T05:25:23;96474.25;;;-2.12;69.03
50394;BME280;36308;46.312;25.288;2022-11-15T05:27:49;96475.28;;;-2.13;69.50
50394;BME280;36308;46.312;25.288;2022-11-15T05:30:15;96469.19;;;-2.13;69.13
50394;BME280;36308;46.312;25.288;2022-11-15T05:32:40;96457.16;;;-2.16;69.43
50394;BME280;36308;46.312;25.288;2022-11-15T05:35:07;96469.19;;;-2.13;69.51
50394;BME280;36308;46.312;25.288;2022-11-15T05:37:34;96469.19;;;-2.13;69.47
50394;BME280;36308;46.312;25.288;2022-11-15T05:39:59;96460.63;;;-2.15;69.57
50394;BME280;36308;46.312;25.288;2022-11-15T05:42:25;96464.22;;;-2.16;69.63
50394;BME280;36308;46.312;25.288;2022-11-15T05:44:51;96464.06;;;-2.15;69.38
50394;BME280;36308;46.312;25.288;2022-11-15T05:47:20;96463.91;;;-2.13;69.45
50394;BME280;36308;46.312;25.288;2022-11-15T05:49:48;96465.72;;;-2.14;69.51
50394;BME280;36308;46.312;25.288;2022-11-15T05:52:17;96463.06;;;-2.14;69.41
50394;BME280;36308;46.312;25.288;2022-11-15T05:54:44;96458.47;;;-2.12;69.44
50394;BME280;36308;46.312;25.288;2022-11-15T05:57:09;96463.56;;;-2.10;69.43
50394;BME280;36308;46.312;25.288;2022-11-15T05:59:35;96466.03;;;-2.09;69.46
50394;BME280;36308;46.312;25.288;2022-11-15T06:02:01;96465.03;;;-2.08;69.50
50394;BME280;36308;46.312;25.288;2022-11-15T06:04:27;96471.31;;;-2.09;69.28
50394;BME280;36308;46.312;25.288;2022-11-15T06:06:52;96464.38;;;-2.10;69.63
50394;BME280;36308;46.312;25.288;2022-11-15T06:09:18;96478.88;;;-2.06;69.55
50394;BME280;36308;46.312;25.288;2022-11-15T06:11:43;96474.25;;;-2.04;69.54
50394;BME280;36308;46.312;25.288;2022-11-15T06:14:08;96476.88;;;-2.04;69.43
50394;BME280;36308;46.312;25.288;2022-11-15T06:16:34;96473.94;;;-2.00;69.98
50394;BME280;36308;46.312;25.288;2022-11-15T06:18:59;96476.22;;;-1.97;69.71
50394;BME280;36308;46.312;25.288;2022-11-15T06:21:24;96478.53;;;-1.94;70.35
50394;BME280;36308;46.312;25.288;2022-11-15T06:23:53;96474.88;;;-1.93;70.18
50394;BME280;36308;46.312;25.288;2022-11-15T06:26:18;96470.59;;;-1.86;70.17
50394;BME280;36308;46.312;25.288;2022-11-15T06:28:44;96473.25;;;-1.86;70.16
50394;BME280;36308;46.312;25.288;2022-11-15T06:31:10;96470.75;;;-1.79;70.28
50394;BME280;36308;46.312;25.288;2022-11-15T06:33:40;96471.25;;;-1.76;70.45
50394;BME280;36308;46.312;25.288;2022-11-15T06:36:08;96472.53;;;-1.72;70.69
50394;BME280;36308;46.312;25.288;2022-11-15T06:38:34;96475.84;;;-1.70;70.77
50394;BME280;36308;46.312;25.288;2022-11-15T06:41:08;96475.47;;;-1.67;70.53
50394;BME280;36308;46.312;25.288;2022-11-15T06:43:34;96469.88;;;-1.64;70.69
50394;BME280;36308;46.312;25.288;2022-11-15T06:46:01;96469.88;;;-1.64;70.91
50394;BME280;36308;46.312;25.288;2022-11-15T06:48:28;96477.28;;;-1.59;70.87
50394;BME280;36308;46.312;25.288;2022-11-15T06:50:55;96470.81;;;-1.56;71.22
50394;BME280;36308;46.312;25.288;2022-11-15T06:53:21;96472.94;;;-1.52;70.94
50394;BME280;36308;46.312;25.288;2022-11-15T06:55:47;96467.00;;;-1.46;71.53
50394;BME280;36308;46.312;25.288;2022-11-15T06:58:13;96460.22;;;-1.40;71.41
50394;BME280;36308;46.312;25.288;2022-11-15T07:00:38;96457.91;;;-1.35;71.60
50394;BME280;36308;46.312;25.288;2022-11-15T07:03:04;96463.75;;;-1.25;71.63
50394;BME280;36308;46.312;25.288;2022-11-15T07:05:30;96452.34;;;-1.17;71.70
50394;BME280;36308;46.312;25.288;2022-11-15T07:07:57;96454.13;;;-1.09;71.67
50394;BME280;36308;46.312;25.288;2022-11-15T07:10:23;96455.69;;;-1.00;71.63
50394;BME280;36308;46.312;25.288;2022-11-15T07:12:50;96445.75;;;-0.90;72.10
50394;BME280;36308;46.312;25.288;2022-11-15T07:15:17;96448.16;;;-0.80;72.06
50394;BME280;36308;46.312;25.288;2022-11-15T07:17:42;96442.66;;;-0.70;71.94
50394;BME280;36308;46.312;25.288;2022-11-15T07:20:08;96438.13;;;-0.62;72.49
50394;BME280;36308;46.312;25.288;2022-11-15T07:22:34;96445.59;;;-0.50;72.45
50394;BME280;36308;46.312;25.288;2022-11-15T07:24:59;96423.97;;;-0.46;72.25
50394;BME280;36308;46.312;25.288;2022-11-15T07:27:24;96438.28;;;-0.25;72.66
50394;BME280;36308;46.312;25.288;2022-11-15T07:29:50;96440.13;;;-0.11;72.44
50394;BME280;36308;46.312;25.288;2022-11-15T07:32:15;96439.16;;;0.05;73.08
50394;BME280;36308;46.312;25.288;2022-11-15T07:34:41;96442.81;;;0.19;72.39
50394;BME280;36308;46.312;25.288;2022-11-15T07:37:06;96440.00;;;0.35;72.72
50394;BME280;36308;46.312;25.288;2022-11-15T07:39:32;96434.47;;;0.52;72.46
50394;BME280;36308;46.312;25.288;2022-11-15T07:41:57;96444.50;;;0.71;72.75
50394;BME280;36308;46.312;25.288;2022-11-15T07:44:41;96433.31;;;0.91;72.32
50394;BME280;36308;46.312;25.288;2022-11-15T07:47:06;96431.06;;;1.09;72.58
50394;BME280;36308;46.312;25.288;2022-11-15T07:49:32;96425.16;;;1.29;72.56
50394;BME280;36308;46.312;25.288;2022-11-15T07:51:57;96422.22;;;1.45;72.35
50394;BME280;36308;46.312;25.288;2022-11-15T07:54:22;96422.59;;;1.64;72.32
50394;BME280;36308;46.312;25.288;2022-11-15T07:56:48;96424.38;;;1.85;71.53
50394;BME280;36308;46.312;25.288;2022-11-15T07:59:13;96423.72;;;2.04;70.92
50394;BME280;36308;46.312;25.288;2022-11-15T08:01:39;96421.16;;;2.24;71.04
50394;BME280;36308;46.312;25.288;2022-11-15T08:04:04;96417.78;;;2.37;70.36
50394;BME280;36308;46.312;25.288;2022-11-15T08:06:29;96418.88;;;2.56;70.21
50394;BME280;36308;46.312;25.288;2022-11-15T08:08:55;96422.03;;;2.73;70.29
50394;BME280;36308;46.312;25.288;2022-11-15T08:11:21;96410.25;;;2.89;70.06
50394;BME280;36308;46.312;25.288;2022-11-15T08:13:46;96402.91;;;3.11;69.96
50394;BME280;36308;46.312;25.288;2022-11-15T08:16:11;96408.28;;;3.31;69.38
50394;BME280;36308;46.312;25.288;2022-11-15T08:18:37;96401.75;;;3.53;69.05
50394;BME280;36308;46.312;25.288;2022-11-15T08:21:03;96398.47;;;3.71;68.56
50394;BME280;36308;46.312;25.288;2022-11-15T08:23:29;96403.97;;;3.96;68.46
50394;BME280;36308;46.312;25.288;2022-11-15T08:26:02;96393.09;;;4.18;68.31
50394;BME280;36308;46.312;25.288;2022-11-15T08:28:28;96388.13;;;4.41;68.03
50394;BME280;36308;46.312;25.288;2022-11-15T08:30:54;96386.81;;;4.64;67.19
50394;BME280;36308;46.312;25.288;2022-11-15T08:33:19;96381.81;;;4.81;66.65
50394;BME280;36308;46.312;25.288;2022-11-15T08:35:45;96380.47;;;5.03;66.85
50394;BME280;36308;46.312;25.288;2022-11-15T08:38:11;96383.84;;;5.24;66.43
50394;BME280;36308;46.312;25.288;2022-11-15T08:40:37;96385.91;;;5.47;66.15
50394;BME280;36308;46.312;25.288;2022-11-15T08:43:02;96384.06;;;5.73;65.99
50394;BME280;36308;46.312;25.288;2022-11-15T08:45:29;96377.34;;;5.95;65.08
50394;BME280;36308;46.312;25.288;2022-11-15T08:47:55;96370.56;;;6.18;64.52
50394;BME280;36308;46.312;25.288;2022-11-15T08:50:20;96362.13;;;6.39;64.49
50394;BME280;36308;46.312;25.288;2022-11-15T08:52:45;96363.44;;;6.67;62.97
50394;BME280;36308;46.312;25.288;2022-11-15T08:55:13;96364.59;;;6.90;63.16
50394;BME280;36308;46.312;25.288;2022-11-15T08:57:39;96364.66;;;7.13;62.55
50394;BME280;36308;46.312;25.288;2022-11-15T09:00:04;96358.81;;;7.35;62.16
50394;BME280;36308;46.312;25.288;2022-11-15T09:02:30;96355.38;;;7.58;61.30
50394;BME280;36308;46.312;25.288;2022-11-15T09:04:55;96344.31;;;7.78;61.58
50394;BME280;36308;46.312;25.288;2022-11-15T09:07:21;96351.31;;;8.02;60.52
50394;BME280;36308;46.312;25.288;2022-11-15T09:09:46;96336.50;;;8.23;60.68
50394;BME280;36308;46.312;25.288;2022-11-15T09:12:12;96338.34;;;8.46;59.36
50394;BME280;36308;46.312;25.288;2022-11-15T09:14:37;96332.81;;;8.65;58.74
50394;BME280;36308;46.312;25.288;2022-11-15T09:17:03;96328.94;;;8.84;59.06
50394;BME280;36308;46.312;25.288;2022-11-15T09:19:29;96329.78;;;9.02;58.37
50394;BME280;36308;46.312;25.288;2022-11-15T09:21:54;96329.00;;;9.18;58.17
50394;BME280;36308;46.312;25.288;2022-11-15T09:24:20;96324.00;;;9.39;57.04
50394;BME280;36308;46.312;25.288;2022-11-15T09:26:46;96326.91;;;9.54;57.05
50394;BME280;36308;46.312;25.288;2022-11-15T09:29:11;96310.50;;;9.67;56.23
50394;BME280;36308;46.312;25.288;2022-11-15T09:31:36;96314.53;;;9.87;55.62
50394;BME280;36308;46.312;25.288;2022-11-15T09:34:02;96302.47;;;10.06;55.26
50394;BME280;36308;46.312;25.288;2022-11-15T09:36:28;96296.78;;;10.25;54.64
50394;BME280;36308;46.312;25.288;2022-11-15T09:38:53;96294.91;;;10.42;54.92
50394;BME280;36308;46.312;25.288;2022-11-15T09:46:45;96277.75;;;10.98;54.05
50394;BME280;36308;46.312;25.288;2022-11-15T09:49:15;96282.78;;;11.16;53.73
50394;BME280;36308;46.312;25.288;2022-11-15T09:51:43;96277.00;;;11.29;53.52
50394;BME280;36308;46.312;25.288;2022-11-15T09:54:37;96269.56;;;11.42;52.54
50394;BME280;36308;46.312;25.288;2022-11-15T09:57:09;96273.72;;;11.60;53.26
50394;BME280;36308;46.312;25.288;2022-11-15T10:02:37;96267.78;;;11.95;51.81
50394;BME280;36308;46.312;25.288;2022-11-15T10:05:10;96257.94;;;12.11;51.96
50394;BME280;36308;46.312;25.288;2022-11-15T10:08:05;96249.66;;;12.28;51.96
50394;BME280;36308;46.312;25.288;2022-11-15T10:10:45;96242.72;;;12.47;52.09
50394;BME280;36308;46.312;25.288;2022-11-15T10:13:18;96241.72;;;12.64;51.47
50394;BME280;36308;46.312;25.288;2022-11-15T10:15:47;96234.44;;;12.80;51.20
50394;BME280;36308;46.312;25.288;2022-11-15T10:20:49;96232.34;;;13.07;50.43
50394;BME280;36308;46.312;25.288;2022-11-15T10:23:20;96229.09;;;13.21;50.09
50394;BME280;36308;46.312;25.288;2022-11-15T10:25:46;96224.81;;;13.35;50.05
50394;BME280;36308;46.312;25.288;2022-11-15T10:30:46;96210.50;;;13.60;49.83
50394;BME280;36308;46.312;25.288;2022-11-15T10:33:26;96217.22;;;13.78;49.70
50394;BME280;36308;46.312;25.288;2022-11-15T10:36:18;96218.50;;;13.96;48.59
50394;BME280;36308;46.312;25.288;2022-11-15T10:41:38;96206.00;;;14.26;47.16
50394;BME280;36308;46.312;25.288;2022-11-15T10:46:40;96195.03;;;14.57;47.08
50394;BME280;36308;46.312;25.288;2022-11-15T10:49:18;96190.63;;;14.71;46.42
50394;BME280;36308;46.312;25.288;2022-11-15T10:51:49;96188.41;;;14.83;46.34
50394;BME280;36308;46.312;25.288;2022-11-15T10:54:36;96185.63;;;14.93;45.81
50394;BME280;36308;46.312;25.288;2022-11-15T10:57:33;96184.47;;;15.05;45.74
50394;BME280;36308;46.312;25.288;2022-11-15T11:00:06;96181.09;;;15.18;45.68
50394;BME280;36308;46.312;25.288;2022-11-15T11:02:38;96181.88;;;15.24;45.22
50394;BME280;36308;46.312;25.288;2022-11-15T11:05:06;96165.88;;;15.27;45.46
50394;BME280;36308;46.312;25.288;2022-11-15T11:07:56;96170.34;;;15.42;44.98
50394;BME280;36308;46.312;25.288;2022-11-15T11:10:22;96167.19;;;15.59;44.01
50394;BME280;36308;46.312;25.288;2022-11-15T11:12:48;96162.25;;;15.66;42.99
50394;BME280;36308;46.312;25.288;2022-11-15T11:15:15;96167.59;;;15.76;43.19
50394;BME280;36308;46.312;25.288;2022-11-15T11:33:48;96141.81;;;16.46;39.22
50394;BME280;36308;46.312;25.288;2022-11-15T11:36:21;96137.41;;;16.50;39.17
50394;BME280;36308;46.312;25.288;2022-11-15T11:41:49;96132.03;;;16.64;39.12
50394;BME280;36308;46.312;25.288;2022-11-15T11:47:24;96114.78;;;16.74;38.03
50394;BME280;36308;46.312;25.288;2022-11-15T11:49:55;96111.78;;;16.75;37.80
50394;BME280;36308;46.312;25.288;2022-11-15T11:55:12;96105.22;;;16.82;37.68
50394;BME280;36308;46.312;25.288;2022-11-15T12:00:18;96094.47;;;16.90;37.61
50394;BME280;36308;46.312;25.288;2022-11-15T12:03:04;96094.03;;;17.02;37.36
50394;BME280;36308;46.312;25.288;2022-11-15T12:05:40;96088.44;;;17.12;37.12
50394;BME280;36308;46.312;25.288;2022-11-15T12:11:17;96081.00;;;17.32;36.53
50394;BME280;36308;46.312;25.288;2022-11-15T12:13:42;96082.25;;;17.40;36.12
50394;BME280;36308;46.312;25.288;2022-11-15T12:16:12;96073.38;;;17.48;36.16
50394;BME280;36308;46.312;25.288;2022-11-15T12:18:44;96074.41;;;17.52;35.57
50394;BME280;36308;46.312;25.288;2022-11-15T12:21:30;96073.78;;;17.55;35.16
50394;BME280;36308;46.312;25.288;2022-11-15T12:24:03;96067.13;;;17.61;34.79
50394;BME280;36308;46.312;25.288;2022-11-15T12:26:46;96075.00;;;17.63;34.42
50394;BME280;36308;46.312;25.288;2022-11-15T12:29:37;96067.94;;;17.62;34.13
50394;BME280;36308;46.312;25.288;2022-11-15T12:32:04;96065.13;;;17.67;34.47
50394;BME280;36308;46.312;25.288;2022-11-15T12:34:44;96070.78;;;17.70;34.58
50394;BME280;36308;46.312;25.288;2022-11-15T12:45:33;96059.19;;;17.78;33.65
50394;BME280;36308;46.312;25.288;2022-11-15T12:58:42;96039.03;;;17.66;34.06
50394;BME280;36308;46.312;25.288;2022-11-15T13:01:09;96027.66;;;17.64;34.03
50394;BME280;36308;46.312;25.288;2022-11-15T13:03:36;96037.75;;;17.63;34.46
50394;BME280;36308;46.312;25.288;2022-11-15T13:06:38;96032.94;;;17.60;34.43
50394;BME280;36308;46.312;25.288;2022-11-15T13:09:49;96037.25;;;17.61;34.49
50394;BME280;36308;46.312;25.288;2022-11-15T13:11:51;96022.03;;;17.60;34.21
50394;BME280;36308;46.312;25.288;2022-11-15T13:17:29;96018.41;;;17.51;34.71
50394;BME280;36308;46.312;25.288;2022-11-15T13:22:27;96014.69;;;17.47;34.87
50394;BME280;36308;46.312;25.288;2022-11-15T13:30:50;96012.50;;;17.35;35.13
50394;BME280;36308;46.312;25.288;2022-11-15T13:33:20;96008.75;;;17.31;35.28
50394;BME280;36308;46.312;25.288;2022-11-15T13:35:48;96004.72;;;17.28;35.54
50394;BME280;36308;46.312;25.288;2022-11-15T13:40:49;95999.97;;;17.20;35.55
50394;BME280;36308;46.312;25.288;2022-11-15T13:46:18;95995.84;;;17.09;35.96
50394;BME280;36308;46.312;25.288;2022-11-15T13:48:45;95999.88;;;16.98;35.83
50394;BME280;36308;46.312;25.288;2022-11-15T13:54:02;95989.50;;;16.67;36.20
50394;BME280;36308;46.312;25.288;2022-11-15T13:56:29;95990.06;;;16.50;36.80
50394;BME280;36308;46.312;25.288;2022-11-15T13:58:57;95986.56;;;16.30;37.13
50394;BME280;36308;46.312;25.288;2022-11-15T14:01:22;95984.59;;;16.17;37.09
50394;BME280;36308;46.312;25.288;2022-11-15T14:03:57;95986.22;;;15.99;37.47
50394;BME280;36308;46.312;25.288;2022-11-15T14:06:28;95981.06;;;15.79;37.99
50394;BME280;36308;46.312;25.288;2022-11-15T14:11:28;95979.59;;;15.43;38.83
50394;BME280;36308;46.312;25.288;2022-11-15T14:16:40;95967.88;;;15.05;39.61
50394;BME280;36308;46.312;25.288;2022-11-15T14:19:32;95969.13;;;14.88;39.87
50394;BME280;36308;46.312;25.288;2022-11-15T14:22:09;95967.69;;;14.67;40.09
50394;BME280;36308;46.312;25.288;2022-11-15T14:24:36;95967.28;;;14.49;40.35
50394;BME280;36308;46.312;25.288;2022-11-15T14:27:25;95960.72;;;14.26;40.44
50394;BME280;36308;46.312;25.288;2022-11-15T14:29:52;95961.34;;;14.13;40.77
50394;BME280;36308;46.312;25.288;2022-11-15T14:32:26;95961.75;;;13.96;41.20
50394;BME280;36308;46.312;25.288;2022-11-15T14:35:00;95952.69;;;13.77;41.52
50394;BME280;36308;46.312;25.288;2022-11-15T14:37:33;95952.75;;;13.61;41.73
50394;BME280;36308;46.312;25.288;2022-11-15T14:40:03;95950.94;;;13.46;42.11
50394;BME280;36308;46.312;25.288;2022-11-15T14:42:29;95941.03;;;13.26;42.25
50394;BME280;36308;46.312;25.288;2022-11-15T14:44:55;95950.25;;;13.15;42.63
50394;BME280;36308;46.312;25.288;2022-11-15T14:47:20;95950.84;;;13.02;42.56
50394;BME280;36308;46.312;25.288;2022-11-15T14:49:46;95937.38;;;12.86;43.00
50394;BME280;36308;46.312;25.288;2022-11-15T14:54:50;95948.28;;;12.56;43.41
50394;BME280;36308;46.312;25.288;2022-11-15T14:57:15;95945.03;;;12.43;43.78
50394;BME280;36308;46.312;25.288;2022-11-15T14:59:41;95946.94;;;12.27;44.23
50394;BME280;36308;46.312;25.288;2022-11-15T15:03:19;95941.81;;;12.10;44.83